AirNav   Everest Fuels
 
 803 users online  

MO44 SSM Health St. Joseph Hospital-St. Charles Heliport
St Charles, Missouri, USA

GOING TO ST CHARLES?


FAA INFORMATION EFFECTIVE 26 MARCH 2020

Location

FAA Identifier: MO44
Lat/Long: 38-46-50.9800N 090-29-07.6300W
38-46.849667N 090-29.127167W
38.7808278,-90.4854528
(estimated)
Elevation: 530 ft. / 162 m (estimated)
Variation: 02E (1985)
From city: 1 mile N of ST CHARLES, MO
Time zone: UTC -5 (UTC -6 during Standard Time)
Zip code: 63301

Heliport Operations

Heliport use: Private use, MEDICAL.
Activation date: 11/1988
Control tower: no
ARTCC: KANSAS CITY CENTER
FSS: SAINT LOUIS FLIGHT SERVICE STATION
Attendance: CONTINUOUS
Wind indicator: yes
Segmented circle: no
Lights: FOR FLOOD LGTS CALL 314-947-5076.

Heliport Communications

WX ASOS at STL (6 nm E): 125.025 (314-890-4790)
WX ASOS at SET (9 nm N): 118.075 (636-250-4590)
WX ASOS at SUS (11 nm SW): 134.8 (314-890-7255)
WX ASOS at CPS (20 nm SE): PHONE 618-332-0001

Nearby radio navigation aids

VOR radial/distance  VOR name  Freq  Var
STLr181/4.8ST LOUIS VORTAC117.4001E
FTZr072/23.3FORISTELL VORTAC110.8005E
TOYr271/26.6TROY VORTAC116.0004E

 
NDB name  Hdg/Dist  Freq  Var  ID
EAVES026/6.922701WFZ ..-. --..
CIVIC MEMORIAL253/21.126301WCVM -.-. ...- --

Heliport Services

Runway Information

Helipad H1

Dimensions: 40 x 40 ft. / 12 x 12 m
Surface: asphalt
Runway edge lights: FLD
Latitude: 38-46.849667N
Longitude: 090-29.127167W
Elevation: 530.0 ft.
Traffic pattern: leftleft

Heliport Ownership and Management from official FAA records

Ownership: Privately-owned
Owner: SSM HEALTH CARE ST. LOUIS
1015 CORPORATE SQ DR., SUITE 110
ST LOUIS, MO 63132
Phone (314) 989-2895
Manager: JOHN O'BRIEN
1015 CORPORATE SQ DR., SUITE 110
ST LOUIS, MO 63132
Phone (314) 989-2895

Additional Remarks

FOR CD CTC ST LOUIS APCH AT 314-890-1018.

Instrument Procedures

There are no published instrument procedures at MO44.

Some nearby airports with instrument procedures:

1H0 - Creve Coeur Airport (3 nm S)
KSTL - St Louis Lambert International Airport (6 nm E)
KSET - St Charles County Smartt Airport (9 nm N)
KSUS - Spirit of St Louis Airport (11 nm SW)
KCPS - St Louis Downtown Airport (20 nm SE)
 
Loc | Ops | Rwys | IFR | FBO | Links
Com | Nav | Svcs | Stats | Notes

Kansas City Aviation Department
 
Area around MO44 (SSM Health St. Joseph Hospital-St. Charles Heliport)
 
Road maps at: MapQuest Bing Google
 
Aerial photo
No photo
 
Sectional chart

 
Airport distance calculator
Flying to SSM Health St. Joseph Hospital-St. Charles Heliport? Find the distance to fly.

From to MO44

Sunrise and sunset
Times for 03-Apr-2020
 Local
(UTC-5)
 Zulu
(UTC)
Morning civil twilight06:1611:16
Sunrise06:4311:43
Sunset19:2700:27
Evening civil twilight19:5400:54

Current date and time
Zulu (UTC)  04-Apr-2020 00:23:10
Local (UTC-5)  03-Apr-2020 19:23:10
 
METAR
KSTL 
6nm E 
032351Z 27014KT 10SM BKN075 OVC110 16/09 A3002 RMK AO2 SLP164 T01560089 10233 20156 53015
KSET 
9nm N 
032354Z AUTO 30011KT 10SM OVC070 16/08 A3002 RMK AO2 SLP163 T01610083 10228 20161 53019 $
KSUS 
11nm SW 
032354Z 30009KT 6SM -RA OVC060 14/08 A3003 RMK AO2 RAB49 SLP169 P0001 60001 T01390083 10222 20139 51022
TAF
KSTL 
6nm E 
032053Z 0321/0424 23005KT P6SM OVC070 FM040000 29005KT P6SM VCSH OVC035 FM040200 32005KT P6SM VCSH OVC025 FM040500 33009KT P6SM -SHRA OVC015 FM041500 34008KT P6SM OVC007 FM041900 35006KT P6SM OVC035
KSUS 
11nm SW 
031737Z 0318/0418 23007KT P6SM OVC070 FM032100 27005KT P6SM VCSH OVC035 FM040000 VRB04KT P6SM VCSH OVC020 FM040100 32006KT P6SM VCSH OVC015 FM041000 34009KT P6SM -SHRA OVC007 FM041500 34007KT P6SM OVC007
NOTAMs
Click for the latest NOTAMs
NOTAMs are issued by the DoD/FAA and will open in a separate window not controlled by AirNav.

 

 
 

Would you like to see your business listed on this page?

 If your business provides an interesting product or service to pilots, flight crews, aircraft, or users of the SSM Health St. Joseph Hospital-St. Charles Heliport, you should consider listing it here.  To start the listing process, click on the button below
 
Add a business
 

Other Pages about SSM Health St. Joseph Hospital-St. Charles Heliport

Update a link
 
Copyright © AirNav, LLC. All rights reserved. Privacy Policy  Contact